Stations météo

réclame
Mon MeteoGroup
Hoek van Holland, Pays-Bas (6330): Température de l'air & dewpoint: 15.01.2018 13:00:00 - 21.01.2018 13:00:00 (CET)Hoek van Holland, Pays-Bas (6330): Température de l'air 5cm: 15.01.2018 13:00:00 - 21.01.2018 13:00:00 (CET)Hoek van Holland, Pays-Bas (6330): Vitesse du vent & gusts: 15.01.2018 13:00:00 - 21.01.2018 13:00:00 (CET)Hoek van Holland, Pays-Bas (6330): Direction du vent: 15.01.2018 13:00:00 - 21.01.2018 13:00:00 (CET)Hoek van Holland, Pays-Bas (6330): reduced air pressure: 15.01.2018 13:00:00 - 21.01.2018 13:00:00 (CET)Hoek van Holland, Pays-Bas (6330): Quantités de précipitations: 15.01.2018 13:00:00 - 21.01.2018 13:00:00 (CET)
Date & Time tt [°C] td [°C] tt 5cm [°C] ff [km/h] ff [knt] fx [km/h] fx [knt] dd ppp [hPa] rr [mm]
21.01.2018 13:00:00 6,8 2,8 7,2 14 8 22 12 W 1015,9 0,0
21.01.2018 12:00:00 6,4 3,3 6,7 14 8 18 10 W 1015,8 0,0
21.01.2018 11:00:00 6,5 2,5 5,9 7 4 11 6 W 1015,7 0,0
21.01.2018 10:00:00 4,8 2,0 4,2 11 6 14 8 NW 1015,1 0,0
21.01.2018 09:00:00 4,2 1,3 3,8 18 10 32 18 NNW 1014,6 0,0
21.01.2018 08:00:00 4,6 0,9 3,8 25 14 29 16 NW 1013,7 0,0
21.01.2018 07:00:00 4,3 0,6 3,6 22 12 40 21 NW 1013,0 0,0
21.01.2018 06:00:00 4,4 0,9 4,0 32 18 43 23 NW 1012,2 0,0
21.01.2018 05:00:00 4,5 0,8 4,0 36 19 43 23 NW 1011,2 0,0
21.01.2018 04:00:00 3,9 1,0 3,6 43 23 50 27 NNW 1010,2 0,0
21.01.2018 03:00:00 4,7 1,1 4,0 36 19 50 27 NW 1009,5 0,0
21.01.2018 02:00:00 4,8 0,8 4,2 40 21 50 27 NW 1008,0 0,0
21.01.2018 01:00:00 4,6 2,2 4,2 36 19 47 25 NNW 1006,7 0,0
21.01.2018 00:00:00 3,6 2,2 3,1 29 16 47 25 N 1005,3 0,0
20.01.2018 23:00:00 3,6 2,9 3,4 14 8 25 14 NNW 1004,5 0,5
20.01.2018 22:00:00 3,6 2,4 3,2 14 8 22 12 NW 1003,6 0,0
20.01.2018 21:00:00 3,2 2,3 3,0 18 10 25 14 NNW 1002,6 0,3
20.01.2018 20:00:00 3,2 2,4 3,2 22 12 25 14 NW 1001,8 0,4
20.01.2018 19:00:00 3,2 2,6 2,8 7 4 7 4 W 1000,9 0,2
20.01.2018 18:00:00 3,3 2,2 2,9 4 2 4 2 SSW 1000,2 0,0
20.01.2018 17:00:00 3,8 2,3 3,7 7 4 14 8 S 999,6 0,0
20.01.2018 16:00:00 4,2 2,2 4,2 14 8 18 10 S 999,3 0,0
20.01.2018 15:00:00 4,7 2,9 4,7 18 10 25 14 S 999,2 0,0
20.01.2018 14:00:00 4,5 2,9 4,5 22 12 25 14 S 999,9 0,0
20.01.2018 13:00:00 4,3 3,1 4,3 22 12 32 18 S 1000,9 0,0
20.01.2018 12:00:00 3,9 2,7 3,8 25 14 36 19 S 1002,3 0,0
20.01.2018 11:00:00 3,4 2,2 3,4 22 12 32 18 S 1002,8 0,0
20.01.2018 10:00:00 2,8 1,6 2,6 22 12 25 14 S 1003,4 0,0
20.01.2018 09:00:00 2,5 1,1 2,1 25 14 36 19 S 1003,9 0,0
20.01.2018 08:00:00 3,0 1,4 2,8 22 12 29 16 S 1004,3 0,0
20.01.2018 07:00:00 4,8 1,7 4,4 18 10 25 14 SW 1004,9 0,0
20.01.2018 06:00:00 4,5 1,0 3,9 22 12 36 19 WSW 1005,2 0,0
20.01.2018 05:00:00 4,5 1,0 4,0 18 10 36 19 WSW 1005,9 0,0
20.01.2018 04:00:00 4,5 0,8 4,0 29 16 40 21 WSW 1006,6 0,0
20.01.2018 03:00:00 4,7 1,0 4,3 25 14 40 21 W 1007,2 0,0
20.01.2018 02:00:00 5,0 1,4 4,5 25 14 36 19 W 1007,3 0,0
20.01.2018 01:00:00 5,1 0,9 4,6 25 14 40 21 W 1007,4 0,0
20.01.2018 00:00:00 5,2 1,2 4,8 36 19 43 23 W 1007,4 0,0
19.01.2018 23:00:00 5,0 1,5 4,8 25 14 40 21 WSW 1007,5 0,0
19.01.2018 22:00:00 4,8 -0,1 4,2 22 12 47 25 WSW 1007,5 0,0
19.01.2018 21:00:00 4,9 0,7 4,3 25 14 36 19 W 1007,4 0,0
19.01.2018 20:00:00 4,0 0,4 3,7 29 16 72 39 W 1007,5 0,1
19.01.2018 19:00:00 5,2 0,9 4,7 29 16 40 21 W 1007,6 0,0
19.01.2018 18:00:00 4,8 1,2 4,1 29 16 40 21 WSW 1007,5 0,0
19.01.2018 17:00:00 4,6 0,2 4,3 29 16 40 21 WSW 1007,5 0,0
19.01.2018 16:00:00 5,3 1,0 5,2 29 16 43 23 WSW 1007,5 0,0
19.01.2018 15:00:00 5,7 1,4 5,8 25 14 43 23 WSW 1007,5 0,0
19.01.2018 14:00:00 7,5 2,4 7,5 25 14 40 21 WSW 1007,8 0,0
19.01.2018 13:00:00 5,9 1,7 5,8 29 16 40 21 WSW 1007,9 0,0
19.01.2018 12:00:00 5,9 2,5 5,8 22 12 32 18 W 1007,9 0,0
19.01.2018 11:00:00 5,0 2,1 4,9 29 16 40 21 W 1007,9 0,0
19.01.2018 10:00:00 4,8 2,1 4,6 29 16 40 21 W 1007,4 0,0
19.01.2018 09:00:00 4,5 1,9 4,1 36 19 47 25 W 1006,7 0,0
19.01.2018 08:00:00 4,4 1,6 4,1 36 19 50 27 W 1006,1 0,0
19.01.2018 07:00:00 4,5 1,8 4,1 40 21 58 31 W 1005,7 0,0
19.01.2018 06:00:00 4,6 2,0 4,3 43 23 50 27 W 1005,2 0,0
19.01.2018 05:00:00 4,8 2,8 4,6 36 19 50 27 W 1004,5 0,0
19.01.2018 04:00:00 4,6 2,8 4,4 40 21 50 27 WNW 1004,1 0,4
19.01.2018 03:00:00 4,5 3,2 4,2 43 23 58 31 W 1003,4 0,3
19.01.2018 02:00:00 4,5 2,9 4,2 29 16 43 23 WNW 1002,9 0,2
19.01.2018 01:00:00 4,7 3,2 4,5 32 18 47 25 WNW 1002,6 0,0
19.01.2018 00:00:00 4,8 3,4 4,3 32 18 43 23 W 1002,2 0,3
18.01.2018 23:00:00 4,1 3,3 3,8 22 12 43 23 NW 1002,0 2,5
18.01.2018 22:00:00 4,5 3,3 3,9 18 10 40 21 W 1001,3 0,0
18.01.2018 21:00:00 4,3 3,1 3,9 11 6 18 10 SW 1001,3 0,3
18.01.2018 20:00:00 4,3 2,5 3,8 18 10 25 14 W 1001,2 0,4
18.01.2018 19:00:00 5,7 3,2 5,2 18 10 25 14 W 1001,1 0,0
18.01.2018 18:00:00 5,5 2,8 5,1 22 12 40 21 W 1001,2 0,0
18.01.2018 17:00:00 5,5 2,2 5,1 32 18 47 25 W 1001,2 0,0
18.01.2018 16:00:00 5,6 2,2 5,2 40 21 54 29 W 1001,0 0,0
18.01.2018 15:00:00 6,0 2,4 6,1 47 25 61 33 W 1000,3 0,0
18.01.2018 14:00:00 5,5 2,3 5,4 50 27 76 41 W 999,7 0,0
18.01.2018 13:00:00 5,5 2,9 5,4 65 35 83 45 W 998,5 0,1
18.01.2018 12:00:00 5,1 3,3 4,9 61 33 83 45 WNW 997,0 0,3
18.01.2018 11:00:00 6,0 2,7 5,8 72 39 101 54 WNW 994,0 0,0
18.01.2018 10:00:00 5,5 2,7 5,4 104 56 144 78 W 989,5 0,0
18.01.2018 09:00:00 7,6 3,1 7,4 94 51 122 66 W 986,5 0,0
18.01.2018 08:00:00 9,0 6,5 8,6 54 29 86 47 WSW 985,6 0,0
18.01.2018 07:00:00 8,9 7,7 8,6 58 31 83 45 SW 986,3 0,1
18.01.2018 06:00:00 8,1 7,4 7,7 58 31 90 49 SW 987,1 1,2
18.01.2018 05:00:00 5,1 4,7 4,8 50 27 76 41 S 990,1 1,2
18.01.2018 04:00:00 4,0 3,3 3,6 50 27 61 33 S 993,8 2,7
18.01.2018 03:00:00 3,8 2,7 3,8 47 25 61 33 S 997,8 2,0
18.01.2018 02:00:00 4,9 3,0 4,8 29 16 43 23 SSW 1000,5 0,4
18.01.2018 01:00:00 6,2 2,1 6,0 43 23 61 33 WSW 1002,7 0,0
18.01.2018 00:00:00 6,5 2,1 6,2 29 16 47 25 WSW 1004,2 0,0
17.01.2018 23:00:00 6,4 1,5 6,0 32 18 50 27 WSW 1005,1 0,0
17.01.2018 22:00:00 6,1 1,3 5,7 36 19 58 31 W 1005,6 0,0
17.01.2018 21:00:00 6,0 1,4 5,7 40 21 58 31 W 1005,4 0,0
17.01.2018 20:00:00 6,4 1,2 6,2 50 27 65 35 W 1005,4 0,0
17.01.2018 19:00:00 6,2 1,2 5,7 43 23 65 35 W 1005,5 0,0
17.01.2018 18:00:00 6,3 1,3 6,0 58 31 72 39 W 1005,4 0,0
17.01.2018 17:00:00 6,1 1,2 5,7 61 33 76 41 W 1004,6 0,0
17.01.2018 16:00:00 6,3 0,9 6,2 65 35 86 47 W 1004,0 0,0
17.01.2018 15:00:00 6,3 1,5 6,3 68 37 90 49 W 1002,8 0,0
17.01.2018 14:00:00 6,3 0,9 6,5 68 37 90 49 W 1001,9 0,0
17.01.2018 13:00:00 5,9 0,4 5,9 72 39 94 51 W 1001,0 0,0
17.01.2018 12:00:00 5,8 0,9 5,9 72 39 97 53 W 1000,2 0,0
17.01.2018 11:00:00 5,2 0,9 5,1 65 35 86 47 W 999,6 0,0
17.01.2018 10:00:00 5,0 0,4 4,8 72 39 86 47 W 998,4 0,0
17.01.2018 09:00:00 4,8 0,3 4,5 65 35 83 45 W 997,4 0,0
17.01.2018 08:00:00 4,3 0,2 4,2 68 37 86 47 W 996,3 0,0
17.01.2018 07:00:00 4,3 -0,8 4,1 65 35 83 45 W 995,3 0,0
17.01.2018 06:00:00 4,4 -0,8 4,2 65 35 90 49 W 994,3 0,0
17.01.2018 05:00:00 4,5 -0,4 4,2 65 35 83 45 W 993,4 0,0
17.01.2018 04:00:00 4,5 -0,7 4,2 61 33 83 45 W 992,9 0,0
17.01.2018 03:00:00 4,7 -0,1 4,5 58 31 72 39 W 992,1 0,0
17.01.2018 02:00:00 4,9 0,6 4,5 54 29 68 37 W 991,6 0,0
17.01.2018 01:00:00 5,2 1,3 4,8 47 25 68 37 W 991,4 0,0
17.01.2018 00:00:00 5,5 1,0 5,2 58 31 72 39 W 991,2 0,0
16.01.2018 23:00:00 5,7 1,6 5,1 43 23 61 33 WSW 991,2 0,1
16.01.2018 22:00:00 6,0 1,5 5,7 29 16 50 27 WSW 991,6 0,0
16.01.2018 21:00:00 6,2 0,6 5,7 43 23 58 31 WSW 992,0 0,0
16.01.2018 20:00:00 6,0 0,2 5,5 43 23 58 31 W 992,5 0,0
16.01.2018 19:00:00 5,5 0,9 5,0 36 19 58 31 W 992,5 0,1
16.01.2018 18:00:00 5,8 1,3 5,2 43 23 68 37 W 993,1 0,0
16.01.2018 17:00:00 5,9 1,0 5,5 43 23 65 35 W 993,3 0,0
16.01.2018 16:00:00 5,5 1,6 5,1 40 21 61 33 W 993,1 0,0
16.01.2018 15:00:00 6,2 1,7 6,1 47 25 58 31 W 993,2 0,0
16.01.2018 14:00:00 6,3 1,8 6,3 50 27 68 37 W 993,2 0,0
16.01.2018 13:00:00 5,9 1,4 5,8 58 31 72 39 W 993,1 0,0
16.01.2018 12:00:00 5,2 1,9 4,9 61 33 76 41 W 993,1 0,1
16.01.2018 11:00:00 5,8 2,3 5,5 58 31 72 39 W 992,3 0,0
16.01.2018 10:00:00 3,9 2,6 3,3 22 12 50 27 W 992,1 0,5
16.01.2018 09:00:00 4,2 2,5 3,3 47 25 72 39 WNW 990,9 1,4
16.01.2018 08:00:00 3,6 2,0 3,4 61 33 86 47 WNW 990,0 3,3
16.01.2018 07:00:00 6,7 4,3 6,5 43 23 61 33 W 989,6 0,0
16.01.2018 06:00:00 6,5 4,3 6,5 40 21 58 31 WSW 989,7 0,3
16.01.2018 05:00:00 7,0 4,1 6,6 36 19 61 33 WSW 990,3 0,0
16.01.2018 04:00:00 7,0 4,2 6,7 43 23 65 35 WSW 990,8 0,0
16.01.2018 03:00:00 7,1 4,3 6,8 40 21 58 31 WSW 990,9 0,0
16.01.2018 02:00:00 6,9 4,5 6,6 36 19 54 29 WSW 991,4 0,0
16.01.2018 01:00:00 7,1 4,4 6,8 36 19 58 31 WSW 992,3 0,0
16.01.2018 00:00:00 6,8 4,4 6,3 36 19 54 29 WSW 992,3 0,0
15.01.2018 23:00:00 6,6 4,5 6,1 36 19 47 25 W 991,5 0,0
15.01.2018 22:00:00 7,0 5,6 6,7 40 21 50 27 W 991,1 0,0
15.01.2018 21:00:00 7,5 6,3 7,4 43 23 58 31 W 990,8 0,0
15.01.2018 20:00:00 7,6 6,7 7,4 32 18 61 33 WSW 990,1 1,0
15.01.2018 19:00:00 7,3 6,8 7,1 40 21 65 35 SSW 989,2 0,7
15.01.2018 18:00:00 6,8 6,2 6,5 54 29 72 39 SSW 989,9 2,0
15.01.2018 17:00:00 6,1 5,5 6,0 54 29 72 39 S 990,8 3,2
15.01.2018 16:00:00 6,2 5,4 6,1 50 27 76 41 S 992,8 2,3
15.01.2018 15:00:00 6,1 5,4 6,0 54 29 76 41 S 994,5 1,0
15.01.2018 14:00:00 5,9 5,0 5,7 54 29 76 41 S 996,6 0,8
15.01.2018 13:00:00 5,5 4,8 5,5 50 27 68 37 S 999,0 1,5

tt = Température de l'air
td = dewpoint
tt 5cm = Température de l'air 5cm
ff = Vitesse du vent
fx = gusts
dd = Direction du vent
ppp = reduced air pressure
rr = Quantités de précipitations

stations d'obs. à proximité